Time;durP1;ratioP1;P1;durP2;ratioP2;P2;SDS_P1;SDS_P2;PMS_P1;PMS_P2;Temp;Humidity;BMP_temperature;BMP_pressure;BME280_temperature;BME280_humidity;BME280_pressure;Samples;Min_cycle;Max_cycle;Signal;HPM_P1;HPM_P2
2022/10/10 00:02:09;;;;;;;8.07;3.60;;;;;;;;;;4995228;28;20026;-67
2022/10/10 00:04:35;;;;;;;7.13;3.10;;;;;;;;;;4995206;28;20030;-67
2022/10/10 00:07:00;;;;;;;10.02;3.38;;;;;;;;;;4995112;28;20349;-67
2022/10/10 00:09:26;;;;;;;10.38;3.20;;;;;;;;;;4995223;28;20038;-67
2022/10/10 00:11:51;;;;;;;10.43;2.90;;;;;;;;;;4994869;28;20472;-67
2022/10/10 00:14:17;;;;;;;11.50;4.47;;;;;;;;;;4995230;28;20026;-67
2022/10/10 00:16:42;;;;;;;7.47;3.60;;;;;;;;;;4995067;28;20030;-67
2022/10/10 00:19:07;;;;;;;7.05;3.35;;;;;;;;;;4994801;28;20092;-67
2022/10/10 00:21:33;;;;;;;8.57;3.60;;;;;;;;;;4994856;28;20488;-68
2022/10/10 00:23:59;;;;;;;10.18;3.40;;;;;;;;;;4994881;28;20145;-67
2022/10/10 00:26:25;;;;;;;5.80;2.75;;;;;;;;;;4994754;28;20027;-67
2022/10/10 00:28:50;;;;;;;7.18;3.13;;;;;;;;;;4995050;28;20045;-67
2022/10/10 00:31:17;;;;;;;8.45;3.20;;;;;;;;;;4994797;28;20065;-67
2022/10/10 00:33:43;;;;;;;8.95;3.33;;;;;;;;;;4995004;28;20028;-67
2022/10/10 00:36:09;;;;;;;10.18;3.28;;;;;;;;;;4994879;28;20030;-67
2022/10/10 00:38:34;;;;;;;8.50;3.08;;;;;;;;;;4993649;28;20117;-67
2022/10/10 00:41:01;;;;;;;8.60;3.33;;;;;;;;;;4994537;28;20029;-67
2022/10/10 00:43:27;;;;;;;6.85;3.03;;;;;;;;;;4994829;28;20422;-67
2022/10/10 00:45:53;;;;;;;9.05;2.90;;;;;;;;;;4994645;28;20062;-67
2022/10/10 00:48:34;;;;;;;8.00;3.10;;;;;;;;;;4994737;28;20065;-67
2022/10/10 00:51:00;;;;;;;10.32;3.20;;;;;;;;;;4994435;28;20088;-67
2022/10/10 00:53:30;;;;;;;11.73;3.55;;;;;;;;;;4994494;28;20030;-68
2022/10/10 00:55:57;;;;;;;5.63;2.78;;;;;;;;;;4994300;28;20041;-67
2022/10/10 00:58:23;;;;;;;8.52;3.30;;;;;;;;;;4994503;28;20110;-67
2022/10/10 01:00:49;;;;;;;7.60;3.00;;;;;;;;;;4994399;28;20102;-67
2022/10/10 01:03:15;;;;;;;8.02;3.20;;;;;;;;;;4994310;28;20034;-67
2022/10/10 01:05:41;;;;;;;9.82;2.97;;;;;;;;;;4992959;28;20129;-67
2022/10/10 01:08:07;;;;;;;8.52;3.15;;;;;;;;;;4993916;28;20543;-67
2022/10/10 01:10:58;;;;;;;9.00;3.38;;;;;;;;;;4994111;28;20026;-68
2022/10/10 01:13:36;;;;;;;8.50;2.67;;;;;;;;;;4994179;28;20034;-67
2022/10/10 01:16:26;;;;;;;7.38;3.03;;;;;;;;;;4994214;28;20113;-67
2022/10/10 01:19:00;;;;;;;6.70;2.88;;;;;;;;;;4994012;28;20404;-67
2022/10/10 01:21:49;;;;;;;7.20;2.97;;;;;;;;;;4993864;28;20026;-68
2022/10/10 01:24:38;;;;;;;4.68;2.70;;;;;;;;;;4993906;28;20022;-67
2022/10/10 01:27:06;;;;;;;6.93;2.88;;;;;;;;;;4994079;28;20376;-67
2022/10/10 01:29:52;;;;;;;5.80;2.60;;;;;;;;;;4993991;28;20050;-67
2022/10/10 01:32:36;;;;;;;5.28;2.55;;;;;;;;;;4993890;28;20022;-67
2022/10/10 01:35:22;;;;;;;7.53;2.90;;;;;;;;;;4994027;28;20022;-67
2022/10/10 01:37:59;;;;;;;9.10;2.78;;;;;;;;;;4993599;28;20041;-67
2022/10/10 01:40:43;;;;;;;7.88;2.85;;;;;;;;;;4993928;28;20040;-67
2022/10/10 01:43:10;;;;;;;10.98;3.30;;;;;;;;;;4993359;28;20423;-68
2022/10/10 01:45:35;;;;;;;8.75;3.97;;;;;;;;;;4993647;28;20045;-68
2022/10/10 01:48:04;;;;;;;6.18;3.00;;;;;;;;;;4993655;28;20455;-67
2022/10/10 01:50:33;;;;;;;8.90;3.25;;;;;;;;;;4993624;28;20030;-67
2022/10/10 01:53:16;;;;;;;6.35;2.97;;;;;;;;;;4993436;28;20034;-67
2022/10/10 01:55:56;;;;;;;6.75;3.05;;;;;;;;;;4993681;28;20505;-68
2022/10/10 01:58:33;;;;;;;7.23;2.83;;;;;;;;;;4993797;28;20078;-68
2022/10/10 02:01:10;;;;;;;8.50;2.97;;;;;;;;;;4993544;28;20380;-67
2022/10/10 02:03:40;;;;;;;7.45;3.20;;;;;;;;;;4993730;28;20026;-67
2022/10/10 02:06:12;;;;;;;5.93;2.65;;;;;;;;;;4993407;28;20049;-67
2022/10/10 02:08:45;;;;;;;6.35;2.97;;;;;;;;;;4993651;28;20384;-67
2022/10/10 02:11:12;;;;;;;7.28;3.53;;;;;;;;;;4993496;28;20034;-67
2022/10/10 02:13:46;;;;;;;9.50;3.83;;;;;;;;;;4993407;28;20064;-67
2022/10/10 02:16:19;;;;;;;7.32;4.03;;;;;;;;;;4993470;28;20022;-67
2022/10/10 02:18:48;;;;;;;8.52;3.20;;;;;;;;;;4993425;28;20038;-68
2022/10/10 02:21:15;;;;;;;7.45;3.03;;;;;;;;;;4993041;28;20034;-68
2022/10/10 02:23:45;;;;;;;6.90;2.90;;;;;;;;;;4993396;28;20027;-67
2022/10/10 02:26:14;;;;;;;10.15;3.20;;;;;;;;;;4993189;28;20041;-69
2022/10/10 02:29:09;;;;;;;6.50;2.88;;;;;;;;;;4993222;28;20165;-68
2022/10/10 02:31:40;;;;;;;4.63;2.30;;;;;;;;;;4990979;28;20043;-67
2022/10/10 02:34:29;;;;;;;8.85;3.28;;;;;;;;;;4993228;28;20041;-67
2022/10/10 02:36:59;;;;;;;6.80;2.90;;;;;;;;;;4989999;28;20038;-70
2022/10/10 02:39:28;;;;;;;6.57;2.40;;;;;;;;;;4993225;28;20019;-68
2022/10/10 02:41:54;;;;;;;12.10;3.13;;;;;;;;;;4993113;28;20108;-67
2022/10/10 02:44:22;;;;;;;8.27;3.28;;;;;;;;;;4993337;28;20471;-68
2022/10/10 02:46:47;;;;;;;7.72;3.15;;;;;;;;;;4992960;28;20484;-67
2022/10/10 02:49:12;;;;;;;5.70;3.35;;;;;;;;;;4993243;28;20045;-67
2022/10/10 02:51:38;;;;;;;6.68;2.80;;;;;;;;;;4992841;28;20542;-68
2022/10/10 02:54:05;;;;;;;6.82;3.22;;;;;;;;;;4993164;28;20035;-67
2022/10/10 02:56:30;;;;;;;4.28;2.45;;;;;;;;;;4995629;28;20030;-68
2022/10/10 02:58:56;;;;;;;6.22;2.83;;;;;;;;;;4996734;28;20023;-67
2022/10/10 03:01:22;;;;;;;10.20;3.72;;;;;;;;;;4996625;28;20038;-67
2022/10/10 03:03:47;;;;;;;11.95;3.17;;;;;;;;;;4996513;28;20026;-68
2022/10/10 03:06:13;;;;;;;8.40;3.97;;;;;;;;;;4996247;28;20053;-68
2022/10/10 03:08:38;;;;;;;11.68;3.67;;;;;;;;;;4996430;28;20534;-68
2022/10/10 03:11:05;;;;;;;8.40;3.42;;;;;;;;;;4996287;28;20353;-68
2022/10/10 03:13:30;;;;;;;10.05;3.55;;;;;;;;;;4996254;28;20058;-67
2022/10/10 03:15:56;;;;;;;7.47;3.15;;;;;;;;;;4996435;28;20018;-69
2022/10/10 03:18:22;;;;;;;8.35;3.67;;;;;;;;;;4996074;28;20030;-67
2022/10/10 03:20:53;;;;;;;9.25;3.70;;;;;;;;;;4995895;28;20038;-67
2022/10/10 03:23:19;;;;;;;14.70;3.50;;;;;;;;;;4996269;28;20026;-67
2022/10/10 03:25:45;;;;;;;8.77;3.58;;;;;;;;;;4996036;28;20026;-67
2022/10/10 03:28:11;;;;;;;8.68;3.35;;;;;;;;;;4996222;28;20026;-67
2022/10/10 03:30:37;;;;;;;8.75;3.53;;;;;;;;;;4996050;28;20030;-67
2022/10/10 03:33:03;;;;;;;9.63;3.75;;;;;;;;;;4995931;28;20495;-68
2022/10/10 03:35:28;;;;;;;9.45;3.70;;;;;;;;;;4995943;28;20023;-66
2022/10/10 03:37:55;;;;;;;8.00;3.40;;;;;;;;;;4995974;28;20467;-68
2022/10/10 03:40:21;;;;;;;8.43;3.58;;;;;;;;;;4995980;28;20061;-67
2022/10/10 03:42:46;;;;;;;6.32;3.08;;;;;;;;;;4995837;28;20101;-67
2022/10/10 03:45:12;;;;;;;8.75;4.18;;;;;;;;;;4995854;28;20487;-67
2022/10/10 03:47:37;;;;;;;10.95;3.72;;;;;;;;;;4995541;28;20109;-67
2022/10/10 03:50:03;;;;;;;8.00;3.47;;;;;;;;;;4995558;28;20018;-67
2022/10/10 03:52:29;;;;;;;11.02;3.90;;;;;;;;;;4995738;28;20034;-67
2022/10/10 03:54:54;;;;;;;9.70;3.72;;;;;;;;;;4994223;28;20034;-67
2022/10/10 03:57:19;;;;;;;12.38;4.03;;;;;;;;;;4995639;28;20077;-69
2022/10/10 03:59:45;;;;;;;8.30;3.95;;;;;;;;;;4995568;28;20103;-65
2022/10/10 04:02:10;;;;;;;12.25;4.10;;;;;;;;;;4995202;28;20077;-65
2022/10/10 04:04:36;;;;;;;13.10;4.50;;;;;;;;;;4995451;28;20033;-66
2022/10/10 04:07:01;;;;;;;10.00;4.03;;;;;;;;;;4994883;28;20096;-65
2022/10/10 04:09:27;;;;;;;9.35;3.67;;;;;;;;;;4995330;28;20026;-67
2022/10/10 04:11:52;;;;;;;13.60;4.10;;;;;;;;;;4995373;28;20113;-67
2022/10/10 04:14:18;;;;;;;13.07;4.22;;;;;;;;;;4995164;28;20022;-67
2022/10/10 04:16:43;;;;;;;10.75;4.38;;;;;;;;;;4994943;28;20022;-68
2022/10/10 04:19:09;;;;;;;11.27;3.97;;;;;;;;;;4994999;28;20076;-67
2022/10/10 04:21:34;;;;;;;10.63;4.18;;;;;;;;;;4995034;28;20042;-67
2022/10/10 04:24:00;;;;;;;9.63;3.70;;;;;;;;;;4995153;28;20029;-67
2022/10/10 04:26:25;;;;;;;8.02;3.53;;;;;;;;;;4994971;28;20088;-66
2022/10/10 04:28:51;;;;;;;10.48;3.97;;;;;;;;;;4994928;28;20030;-66
2022/10/10 04:31:16;;;;;;;12.70;4.00;;;;;;;;;;4994573;28;20488;-66
2022/10/10 04:33:42;;;;;;;9.02;3.85;;;;;;;;;;4994803;28;20030;-66
2022/10/10 04:36:07;;;;;;;10.75;3.67;;;;;;;;;;4994555;28;20023;-66
2022/10/10 04:38:33;;;;;;;7.93;3.35;;;;;;;;;;4994544;28;20041;-66
2022/10/10 04:40:58;;;;;;;10.45;3.28;;;;;;;;;;4994385;28;20032;-65
2022/10/10 04:43:24;;;;;;;8.90;3.83;;;;;;;;;;4994567;28;20443;-65
2022/10/10 04:45:49;;;;;;;6.35;2.70;;;;;;;;;;4994440;28;20026;-65
2022/10/10 04:48:15;;;;;;;12.88;4.80;;;;;;;;;;4994566;28;20026;-65
2022/10/10 04:50:40;;;;;;;8.43;4.40;;;;;;;;;;4994396;28;20113;-65
2022/10/10 04:53:06;;;;;;;10.38;4.28;;;;;;;;;;4994508;28;20110;-66
2022/10/10 04:55:31;;;;;;;7.28;2.80;;;;;;;;;;4994315;28;20472;-66
2022/10/10 04:57:56;;;;;;;16.27;5.38;;;;;;;;;;4994422;28;20045;-65
2022/10/10 05:00:22;;;;;;;9.20;4.72;;;;;;;;;;4994265;28;20137;-67
2022/10/10 05:02:47;;;;;;;7.45;3.55;;;;;;;;;;4994274;28;20023;-65
2022/10/10 05:05:13;;;;;;;11.13;4.60;;;;;;;;;;4994171;28;20041;-65
2022/10/10 05:07:38;;;;;;;10.90;3.75;;;;;;;;;;4994124;28;20364;-66
2022/10/10 05:10:05;;;;;;;9.85;4.30;;;;;;;;;;4994001;28;20353;-65
2022/10/10 05:12:31;;;;;;;10.27;4.88;;;;;;;;;;4994142;28;20092;-66
2022/10/10 05:14:56;;;;;;;9.60;4.20;;;;;;;;;;4993844;28;20467;-68
2022/10/10 05:17:22;;;;;;;10.77;4.57;;;;;;;;;;4993703;28;20051;-65
2022/10/10 05:19:47;;;;;;;10.35;4.72;;;;;;;;;;4993107;28;20472;-68
2022/10/10 05:22:13;;;;;;;14.50;4.03;;;;;;;;;;4993697;28;20078;-68
2022/10/10 05:24:39;;;;;;;10.23;4.85;;;;;;;;;;4993747;28;20085;-67
2022/10/10 05:27:05;;;;;;;20.23;3.97;;;;;;;;;;4993446;28;20030;-67
2022/10/10 05:29:30;;;;;;;13.18;4.05;;;;;;;;;;4993547;28;20041;-66
2022/10/10 05:31:55;;;;;;;6.85;3.45;;;;;;;;;;4993726;28;20033;-66
2022/10/10 05:34:21;;;;;;;7.35;4.03;;;;;;;;;;4993815;28;20527;-66
2022/10/10 05:36:46;;;;;;;10.05;4.28;;;;;;;;;;4993744;28;20042;-67
2022/10/10 05:39:12;;;;;;;10.00;4.60;;;;;;;;;;4993565;28;20216;-66
2022/10/10 05:41:37;;;;;;;10.55;4.07;;;;;;;;;;4993365;28;20026;-66
2022/10/10 05:44:03;;;;;;;8.80;3.67;;;;;;;;;;4993469;28;20026;-66
2022/10/10 05:46:29;;;;;;;9.20;4.50;;;;;;;;;;4993558;28;20022;-66
2022/10/10 05:48:54;;;;;;;10.30;4.50;;;;;;;;;;4993480;28;20621;-67
2022/10/10 05:51:20;;;;;;;13.20;3.42;;;;;;;;;;4993518;28;20408;-66
2022/10/10 05:53:46;;;;;;;12.15;5.95;;;;;;;;;;4993550;28;20110;-67
2022/10/10 05:56:14;;;;;;;11.15;4.45;;;;;;;;;;4993436;28;20110;-66
2022/10/10 05:58:39;;;;;;;10.75;5.22;;;;;;;;;;4993382;28;20546;-66
2022/10/10 06:01:06;;;;;;;7.32;3.67;;;;;;;;;;4993591;28;20030;-67
2022/10/10 06:03:33;;;;;;;13.68;3.80;;;;;;;;;;4993469;28;20027;-66
2022/10/10 06:05:58;;;;;;;8.93;4.18;;;;;;;;;;4993274;28;20054;-66
2022/10/10 06:08:24;;;;;;;10.25;4.45;;;;;;;;;;4993491;28;20057;-65
2022/10/10 06:10:50;;;;;;;11.63;6.10;;;;;;;;;;4993220;28;20074;-67
2022/10/10 06:13:17;;;;;;;10.05;4.53;;;;;;;;;;4993075;28;20031;-67
2022/10/10 06:15:43;;;;;;;10.80;4.10;;;;;;;;;;4993273;28;20085;-66
2022/10/10 06:18:09;;;;;;;10.07;3.78;;;;;;;;;;4993510;28;20031;-66
2022/10/10 06:20:36;;;;;;;8.13;4.53;;;;;;;;;;4992789;28;20057;-66
2022/10/10 06:23:02;;;;;;;8.40;4.78;;;;;;;;;;4993369;28;20027;-66
2022/10/10 06:25:28;;;;;;;12.10;4.95;;;;;;;;;;4993261;28;20492;-66
2022/10/10 06:27:53;;;;;;;8.60;4.57;;;;;;;;;;4992909;28;20035;-68
2022/10/10 06:30:19;;;;;;;15.88;4.75;;;;;;;;;;4995468;28;20026;-65
2022/10/10 06:32:44;;;;;;;10.98;4.90;;;;;;;;;;4997280;28;20491;-66
2022/10/10 06:35:10;;;;;;;11.45;5.32;;;;;;;;;;4996972;28;20479;-67
2022/10/10 06:37:35;;;;;;;5.97;3.83;;;;;;;;;;4996865;28;20022;-66
2022/10/10 06:40:01;;;;;;;9.18;4.40;;;;;;;;;;4996888;28;20029;-66
2022/10/10 06:42:27;;;;;;;7.85;3.72;;;;;;;;;;4996744;28;20029;-67
2022/10/10 06:44:52;;;;;;;6.18;3.45;;;;;;;;;;4996896;28;20022;-66
2022/10/10 06:47:17;;;;;;;7.80;3.60;;;;;;;;;;4996942;28;20125;-66
2022/10/10 06:49:43;;;;;;;9.23;3.45;;;;;;;;;;4996905;28;20026;-67
2022/10/10 06:52:09;;;;;;;6.90;3.53;;;;;;;;;;4996833;28;20034;-66
2022/10/10 06:54:35;;;;;;;8.80;3.88;;;;;;;;;;4996657;28;20033;-66
2022/10/10 06:57:00;;;;;;;7.38;4.20;;;;;;;;;;4996316;28;20435;-68
2022/10/10 06:59:26;;;;;;;5.53;2.60;;;;;;;;;;4996678;28;20038;-66
2022/10/10 07:01:51;;;;;;;6.70;3.17;;;;;;;;;;4996604;28;20022;-68
2022/10/10 07:04:17;;;;;;;8.32;3.47;;;;;;;;;;4996442;28;20101;-67
2022/10/10 07:06:42;;;;;;;8.98;4.10;;;;;;;;;;4996531;28;20033;-66
2022/10/10 07:09:08;;;;;;;7.18;3.80;;;;;;;;;;4996592;28;20026;-67
2022/10/10 07:11:34;;;;;;;8.73;3.75;;;;;;;;;;4996090;28;20026;-66
2022/10/10 07:13:59;;;;;;;4.30;2.97;;;;;;;;;;4996298;28;20034;-66
2022/10/10 07:16:25;;;;;;;7.30;3.88;;;;;;;;;;4996187;28;20041;-67
2022/10/10 07:18:51;;;;;;;6.50;3.60;;;;;;;;;;4994763;28;20133;-68
2022/10/10 07:21:16;;;;;;;6.10;3.40;;;;;;;;;;4995952;28;20034;-67
2022/10/10 07:23:41;;;;;;;5.80;3.47;;;;;;;;;;4996249;28;20372;-69
2022/10/10 07:26:15;;;;;;;7.47;3.40;;;;;;;;;;4995742;28;20047;-67
2022/10/10 07:28:40;;;;;;;5.53;3.38;;;;;;;;;;4996122;28;20037;-68
2022/10/10 07:31:08;;;;;;;6.78;3.35;;;;;;;;;;4996037;28;20026;-67
2022/10/10 07:33:39;;;;;;;12.15;3.80;;;;;;;;;;4996007;28;20026;-67
2022/10/10 07:36:05;;;;;;;7.70;3.63;;;;;;;;;;4995958;28;20579;-69
2022/10/10 07:38:31;;;;;;;7.45;3.30;;;;;;;;;;4994582;28;20026;-67
2022/10/10 07:40:56;;;;;;;5.63;2.85;;;;;;;;;;4994697;28;20542;-66
2022/10/10 07:43:22;;;;;;;8.63;3.70;;;;;;;;;;4995868;28;20025;-68
2022/10/10 07:45:47;;;;;;;9.65;3.45;;;;;;;;;;4995750;28;20447;-66
2022/10/10 07:48:13;;;;;;;6.00;3.28;;;;;;;;;;4995774;28;20030;-66
2022/10/10 07:50:43;;;;;;;6.93;3.42;;;;;;;;;;4995613;28;20022;-68
2022/10/10 07:53:09;;;;;;;4.95;2.90;;;;;;;;;;4995659;28;20096;-69
2022/10/10 07:55:38;;;;;;;5.13;2.78;;;;;;;;;;4995371;28;20110;-66
2022/10/10 07:58:04;;;;;;;5.57;3.10;;;;;;;;;;4995617;28;20019;-66
2022/10/10 08:00:29;;;;;;;7.43;3.83;;;;;;;;;;4995641;28;20034;-67
2022/10/10 08:02:55;;;;;;;8.73;3.50;;;;;;;;;;4995288;28;20081;-66
2022/10/10 08:05:21;;;;;;;4.57;2.80;;;;;;;;;;4995188;28;20065;-67
2022/10/10 08:07:46;;;;;;;6.65;3.40;;;;;;;;;;4995269;28;20161;-66
2022/10/10 08:10:12;;;;;;;11.20;3.65;;;;;;;;;;4995046;28;20030;-66
2022/10/10 08:12:38;;;;;;;9.68;4.00;;;;;;;;;;4995277;28;20023;-67
2022/10/10 08:15:05;;;;;;;5.22;2.53;;;;;;;;;;4995215;28;20023;-68
2022/10/10 08:17:30;;;;;;;12.35;3.40;;;;;;;;;;4995065;28;20097;-67
2022/10/10 08:19:56;;;;;;;12.07;3.40;;;;;;;;;;4994877;28;20042;-66
2022/10/10 08:22:21;;;;;;;7.68;3.20;;;;;;;;;;4995213;28;20475;-70
2022/10/10 08:24:47;;;;;;;8.02;3.70;;;;;;;;;;4994809;28;20057;-68
2022/10/10 08:27:14;;;;;;;7.00;2.92;;;;;;;;;;4995009;28;20022;-66
2022/10/10 08:29:40;;;;;;;8.38;3.40;;;;;;;;;;4994930;28;20022;-68
2022/10/10 08:32:05;;;;;;;8.25;3.35;;;;;;;;;;4994807;28;20125;-67
2022/10/10 08:34:31;;;;;;;6.88;3.30;;;;;;;;;;4994980;28;20030;-68
2022/10/10 08:36:56;;;;;;;10.75;3.35;;;;;;;;;;4994999;28;20069;-69
2022/10/10 08:39:21;;;;;;;6.15;3.47;;;;;;;;;;4994579;28;20109;-67
2022/10/10 08:41:53;;;;;;;5.88;3.33;;;;;;;;;;4994920;28;20065;-67
2022/10/10 08:44:37;;;;;;;6.00;3.25;;;;;;;;;;4994887;28;20053;-66
2022/10/10 08:47:13;;;;;;;7.28;3.40;;;;;;;;;;4994372;28;20030;-65
2022/10/10 08:50:14;;;;;;;6.88;3.40;;;;;;;;;;4994572;28;20062;-65
2022/10/10 08:52:51;;;;;;;5.00;2.55;;;;;;;;;;4971786;28;20039;-70
2022/10/10 08:55:32;;;;;;;8.40;3.00;;;;;;;;;;4972890;28;20074;-68
2022/10/10 08:58:04;;;;;;;7.13;2.80;;;;;;;;;;4972940;28;20113;-68
2022/10/10 09:00:36;;;;;;;6.28;3.00;;;;;;;;;;4972982;28;20035;-71
2022/10/10 09:03:11;;;;;;;8.77;3.40;;;;;;;;;;4972880;28;20038;-68
2022/10/10 09:05:47;;;;;;;7.53;3.42;;;;;;;;;;4972830;28;20078;-68
2022/10/10 09:08:30;;;;;;;7.78;3.72;;;;;;;;;;4972495;28;20396;-69
2022/10/10 09:11:04;;;;;;;6.57;3.33;;;;;;;;;;4972720;28;20110;-70
2022/10/10 09:13:35;;;;;;;6.82;3.13;;;;;;;;;;4972685;28;20058;-68
2022/10/10 09:16:05;;;;;;;6.03;2.95;;;;;;;;;;4972644;28;20091;-67
2022/10/10 09:18:59;;;;;;;9.57;3.47;;;;;;;;;;4972477;28;20097;-65
2022/10/10 09:21:30;;;;;;;5.38;3.13;;;;;;;;;;4971609;28;20068;-67
2022/10/10 09:24:15;;;;;;;5.68;3.30;;;;;;;;;;4972590;28;20484;-71
2022/10/10 09:26:55;;;;;;;5.55;2.53;;;;;;;;;;4972434;28;20031;-69
2022/10/10 09:29:46;;;;;;;5.35;3.05;;;;;;;;;;4993105;28;20061;-68
2022/10/10 09:32:19;;;;;;;6.75;2.92;;;;;;;;;;4990787;28;20480;-68
2022/10/10 09:34:48;;;;;;;5.50;2.90;;;;;;;;;;4992635;28;20118;-68
2022/10/10 09:37:18;;;;;;;5.43;2.65;;;;;;;;;;4993521;28;20037;-68
2022/10/10 09:39:43;;;;;;;;;;;;;;;;;;4994199;28;20101;-68
2022/10/10 09:42:11;;;;;;;5.97;2.55;;;;;;;;;;4993637;28;20362;-68
2022/10/10 09:44:38;;;;;;;5.28;2.95;;;;;;;;;;4993645;28;20118;-66
2022/10/10 09:47:04;;;;;;;4.18;2.58;;;;;;;;;;4993428;28;20022;-67
2022/10/10 09:49:29;;;;;;;6.25;3.22;;;;;;;;;;4993690;28;20510;-66
2022/10/10 09:51:55;;;;;;;5.13;2.40;;;;;;;;;;4993354;28;20070;-68
2022/10/10 09:54:22;;;;;;;7.05;2.80;;;;;;;;;;4993567;28;20030;-67
2022/10/10 09:56:49;;;;;;;6.20;2.83;;;;;;;;;;4993605;28;20105;-67
2022/10/10 09:59:40;;;;;;;5.07;2.88;;;;;;;;;;4993673;28;20468;-67
2022/10/10 10:02:18;;;;;;;7.25;3.15;;;;;;;;;;4993626;28;20041;-66
2022/10/10 10:04:45;;;;;;;7.63;3.00;;;;;;;;;;4992974;28;20027;-67
2022/10/10 10:07:27;;;;;;;5.68;2.95;;;;;;;;;;4993188;28;20030;-67
2022/10/10 10:10:18;;;;;;;6.25;2.97;;;;;;;;;;4993486;28;20030;-67
2022/10/10 10:12:44;;;;;;;7.25;2.58;;;;;;;;;;4990155;28;20044;-67
2022/10/10 10:15:20;;;;;;;5.70;2.75;;;;;;;;;;4993429;28;20491;-68
2022/10/10 10:17:45;;;;;;;8.70;2.67;;;;;;;;;;4993450;28;20026;-68
2022/10/10 10:20:30;;;;;;;7.50;3.00;;;;;;;;;;4992904;28;20042;-66
2022/10/10 10:22:55;;;;;;;5.60;2.70;;;;;;;;;;4993313;28;20113;-64
2022/10/10 10:25:37;;;;;;;5.68;2.67;;;;;;;;;;4993259;28;20106;-66
2022/10/10 10:28:19;;;;;;;8.75;2.53;;;;;;;;;;4993115;28;20028;-66
2022/10/10 10:30:45;;;;;;;4.07;2.33;;;;;;;;;;4993134;28;20053;-66
2022/10/10 10:33:55;;;;;;;6.57;2.40;;;;;;;;;;4993308;28;20019;-65
2022/10/10 10:36:26;;;;;;;6.53;2.88;;;;;;;;;;4991951;28;20480;-65
2022/10/10 10:38:57;;;;;;;6.47;2.55;;;;;;;;;;4993304;28;20035;-65
2022/10/10 10:41:48;;;;;;;6.68;2.38;;;;;;;;;;4993033;28;20165;-68
2022/10/10 10:44:30;;;;;;;5.53;2.40;;;;;;;;;;4993068;28;20068;-65
2022/10/10 10:47:13;;;;;;;6.22;2.65;;;;;;;;;;4992929;28;20046;-65
2022/10/10 10:50:14;;;;;;;5.95;2.78;;;;;;;;;;4992833;28;20026;-65
2022/10/10 10:52:45;;;;;;;5.32;2.50;;;;;;;;;;4992994;28;20428;-69
2022/10/10 10:55:26;;;;;;;4.00;1.90;;;;;;;;;;4993094;28;20037;-70
2022/10/10 10:58:01;;;;;;;8.18;2.15;;;;;;;;;;4993069;28;20030;-65
2022/10/10 11:00:33;;;;;;;4.15;2.13;;;;;;;;;;4993069;28;20033;-66
2022/10/10 11:03:32;;;;;;;4.28;2.20;;;;;;;;;;4993059;28;20033;-70
2022/10/10 11:06:28;;;;;;;6.72;2.60;;;;;;;;;;4992859;28;20030;-69
2022/10/10 11:09:02;;;;;;;5.32;2.00;;;;;;;;;;4992983;28;20034;-65
2022/10/10 11:11:36;;;;;;;8.65;2.58;;;;;;;;;;4992925;28;20459;-69
2022/10/10 11:14:20;;;;;;;4.28;2.00;;;;;;;;;;4992958;28;20029;-67
2022/10/10 11:16:50;;;;;;;5.32;1.83;;;;;;;;;;4994132;28;20105;-67
2022/10/10 11:19:15;;;;;;;9.45;2.60;;;;;;;;;;4995936;28;20042;-68
2022/10/10 11:21:48;;;;;;;6.10;2.13;;;;;;;;;;4996002;28;20037;-68
2022/10/10 11:24:19;;;;;;;4.57;2.58;;;;;;;;;;4996228;28;20037;-67
2022/10/10 11:26:51;;;;;;;4.70;2.35;;;;;;;;;;4996130;28;20064;-68
2022/10/10 11:29:35;;;;;;;4.20;2.35;;;;;;;;;;4996086;28;20026;-67
2022/10/10 11:32:18;;;;;;;5.90;2.20;;;;;;;;;;4995934;28;20034;-67
2022/10/10 11:34:46;;;;;;;6.43;2.60;;;;;;;;;;4996081;28;20117;-68
2022/10/10 11:37:18;;;;;;;7.25;2.45;;;;;;;;;;4995964;28;20027;-67
2022/10/10 11:39:58;;;;;;;6.25;2.60;;;;;;;;;;4995868;28;20030;-68
2022/10/10 11:42:30;;;;;;;8.93;2.30;;;;;;;;;;4995999;28;20034;-67
2022/10/10 11:45:12;;;;;;;6.45;2.65;;;;;;;;;;4996184;28;20033;-69
2022/10/10 11:47:45;;;;;;;5.57;2.40;;;;;;;;;;4995785;28;20216;-68
2022/10/10 11:50:17;;;;;;;7.90;2.70;;;;;;;;;;4995683;28;20440;-67
2022/10/10 11:52:48;;;;;;;3.47;1.98;;;;;;;;;;4995580;28;20050;-67
2022/10/10 11:55:16;;;;;;;5.85;2.50;;;;;;;;;;4995575;28;20026;-68
2022/10/10 11:58:26;;;;;;;4.25;2.13;;;;;;;;;;4995637;28;20057;-67
2022/10/10 12:00:56;;;;;;;4.73;2.10;;;;;;;;;;4973667;28;20046;-69
2022/10/10 12:03:24;;;;;;;14.75;2.28;;;;;;;;;;4973684;28;20035;-73
2022/10/10 12:06:00;;;;;;;4.18;2.00;;;;;;;;;;4973690;28;20098;-71
2022/10/10 12:08:40;;;;;;;4.70;1.92;;;;;;;;;;4973845;28;20154;-67
2022/10/10 12:11:10;;;;;;;;;;;;;;;;;;4974011;28;20046;-67
2022/10/10 12:13:45;;;;;;;5.07;2.03;;;;;;;;;;4973590;28;20431;-67
2022/10/10 12:16:15;;;;;;;5.15;1.90;;;;;;;;;;4973251;28;20121;-67
2022/10/10 12:19:04;;;;;;;4.25;1.80;;;;;;;;;;4973377;28;20106;-68
2022/10/10 12:21:31;;;;;;;3.05;1.70;;;;;;;;;;4973221;28;20038;-70
2022/10/10 12:24:03;;;;;;;4.25;1.85;;;;;;;;;;4973678;28;20043;-65
2022/10/10 12:26:51;;;;;;;5.43;2.40;;;;;;;;;;4973294;28;20484;-68
2022/10/10 12:29:39;;;;;;;6.85;1.98;;;;;;;;;;4973369;28;20506;-65
2022/10/10 12:32:13;;;;;;;5.70;2.28;;;;;;;;;;4973454;28;20067;-65
2022/10/10 12:34:48;;;;;;;5.10;1.98;;;;;;;;;;4973290;28;20110;-65
2022/10/10 12:37:25;;;;;;;4.40;2.00;;;;;;;;;;4992723;28;20038;-66
2022/10/10 12:40:05;;;;;;;9.20;2.00;;;;;;;;;;4994816;28;20491;-65
2022/10/10 12:42:36;;;;;;;;;;;;;;;;;;4995116;28;20030;-65
2022/10/10 12:45:03;;;;;;;4.05;1.67;;;;;;;;;;4993144;28;19996;-65
2022/10/10 12:47:33;;;;;;;6.03;1.92;;;;;;;;;;4994437;28;20022;-65
2022/10/10 12:50:05;;;;;;;4.65;2.00;;;;;;;;;;4994606;28;20401;-65
2022/10/10 12:52:50;;;;;;;4.80;2.30;;;;;;;;;;4994510;28;20036;-66
2022/10/10 12:55:28;;;;;;;3.83;2.00;;;;;;;;;;4994220;28;20026;-66
2022/10/10 12:58:08;;;;;;;6.18;2.55;;;;;;;;;;4994364;28;20425;-67
2022/10/10 13:00:41;;;;;;;4.93;2.05;;;;;;;;;;4994305;28;20038;-69
2022/10/10 13:03:40;;;;;;;5.70;2.30;;;;;;;;;;4994306;28;20033;-66
2022/10/10 13:06:28;;;;;;;5.60;2.20;;;;;;;;;;4991209;28;20039;-67
2022/10/10 13:08:54;;;;;;;8.43;2.47;;;;;;;;;;4990389;28;20112;-67
2022/10/10 13:11:20;;;;;;;6.35;2.00;;;;;;;;;;4994235;28;20041;-67
2022/10/10 13:13:54;;;;;;;5.03;2.55;;;;;;;;;;4994019;28;20026;-66
2022/10/10 13:16:25;;;;;;;5.32;2.05;;;;;;;;;;4994132;28;20030;-67
2022/10/10 13:18:56;;;;;;;5.95;2.22;;;;;;;;;;4993802;28;20590;-66
2022/10/10 13:21:31;;;;;;;5.63;2.40;;;;;;;;;;4993750;28;20052;-67
2022/10/10 13:24:05;;;;;;;4.40;1.88;;;;;;;;;;4994063;28;20018;-67
2022/10/10 13:26:33;;;;;;;5.07;2.10;;;;;;;;;;4993914;28;20030;-66
2022/10/10 13:29:11;;;;;;;4.68;2.13;;;;;;;;;;4993786;28;20022;-70
2022/10/10 13:31:37;;;;;;;5.72;2.30;;;;;;;;;;4993920;28;20734;-67
2022/10/10 13:34:04;;;;;;;11.52;2.83;;;;;;;;;;4993962;28;20030;-68
2022/10/10 13:36:31;;;;;;;9.07;2.10;;;;;;;;;;4993714;28;20022;-68
2022/10/10 13:38:57;;;;;;;4.07;1.98;;;;;;;;;;4993318;28;20073;-67
2022/10/10 13:41:24;;;;;;;7.15;2.25;;;;;;;;;;4993773;28;20023;-67
2022/10/10 13:43:50;;;;;;;6.30;2.47;;;;;;;;;;4993468;28;20030;-67
2022/10/10 13:46:31;;;;;;;2.88;1.70;;;;;;;;;;4993647;28;20027;-67
2022/10/10 13:48:57;;;;;;;6.57;2.25;;;;;;;;;;4993895;28;20030;-68
2022/10/10 13:51:46;;;;;;;5.07;2.17;;;;;;;;;;4992408;28;20034;-67
2022/10/10 13:54:43;;;;;;;4.90;2.17;;;;;;;;;;4993650;28;20030;-68
2022/10/10 13:57:25;;;;;;;3.47;2.00;;;;;;;;;;4993277;28;20041;-71
2022/10/10 14:00:15;;;;;;;4.18;2.00;;;;;;;;;;4993493;28;20264;-72
2022/10/10 14:02:43;;;;;;;6.82;2.00;;;;;;;;;;4993512;28;20044;-67
2022/10/10 14:05:16;;;;;;;7.43;2.25;;;;;;;;;;4993130;28;20026;-68
2022/10/10 14:07:47;;;;;;;9.82;2.42;;;;;;;;;;4993399;28;20097;-72
2022/10/10 14:10:20;;;;;;;4.70;1.85;;;;;;;;;;4993334;28;20094;-69
2022/10/10 14:12:55;;;;;;;4.35;2.15;;;;;;;;;;4993218;28;20102;-69
2022/10/10 14:15:40;;;;;;;8.50;2.58;;;;;;;;;;4993155;28;20022;-70
2022/10/10 14:18:15;;;;;;;7.43;2.13;;;;;;;;;;4993391;28;20026;-68
2022/10/10 14:20:40;;;;;;;3.85;2.05;;;;;;;;;;4993189;28;20046;-68
2022/10/10 14:23:06;;;;;;;5.22;2.20;;;;;;;;;;4993379;28;20037;-72
2022/10/10 14:25:32;;;;;;;6.45;2.30;;;;;;;;;;4993168;28;20037;-71
2022/10/10 14:27:57;;;;;;;4.93;2.05;;;;;;;;;;4993342;28;20511;-68
2022/10/10 14:30:23;;;;;;;4.05;2.13;;;;;;;;;;4993076;28;20490;-68
2022/10/10 14:32:48;;;;;;;9.80;2.55;;;;;;;;;;4993313;28;20030;-68
2022/10/10 14:35:14;;;;;;;7.03;2.70;;;;;;;;;;4993255;28;20081;-68
2022/10/10 14:37:39;;;;;;;4.70;2.22;;;;;;;;;;4993291;28;20080;-67
2022/10/10 14:40:20;;;;;;;4.72;2.13;;;;;;;;;;4992914;28;20464;-67
2022/10/10 14:42:46;;;;;;;6.25;2.45;;;;;;;;;;4993301;28;20089;-67
2022/10/10 14:45:14;;;;;;;6.72;2.40;;;;;;;;;;4993208;28;20065;-68
2022/10/10 14:47:39;;;;;;;4.43;2.28;;;;;;;;;;4993040;28;20505;-67
2022/10/10 14:50:17;;;;;;;6.70;2.50;;;;;;;;;;4993303;28;20037;-67
2022/10/10 14:52:42;;;;;;;5.05;2.30;;;;;;;;;;4996607;28;20172;-67
2022/10/10 14:55:09;;;;;;;6.57;2.35;;;;;;;;;;4996567;28;20026;-67
2022/10/10 14:57:34;;;;;;;8.65;2.70;;;;;;;;;;4996592;28;20034;-67
2022/10/10 14:59:59;;;;;;;6.45;2.28;;;;;;;;;;4996697;28;20018;-68
2022/10/10 15:02:25;;;;;;;5.00;1.88;;;;;;;;;;4996873;28;20226;-67